createdAt,value
2022-11-19T00:01:34.111Z,40.33
2022-11-19T00:04:01.751Z,42.75
2022-11-19T00:06:30.737Z,44.47
2022-11-19T00:08:58.417Z,47.88
2022-11-19T00:11:40.950Z,48.13
2022-11-19T00:14:08.739Z,52.13
2022-11-19T00:16:36.379Z,53.63
2022-11-19T00:19:04.040Z,56.38
2022-11-19T00:21:33.007Z,58.05
2022-11-19T00:24:00.687Z,61.58
2022-11-19T00:26:28.360Z,64.20
2022-11-19T00:28:56.143Z,68.20
2022-11-19T00:31:23.928Z,70.05
2022-11-19T00:33:54.096Z,73.18
2022-11-19T00:36:21.924Z,76.97
2022-11-19T00:38:50.918Z,82.57
2022-11-19T00:41:18.669Z,83.45
2022-11-19T00:43:49.797Z,87.55
2022-11-19T00:46:18.483Z,91.22
2022-11-19T00:48:46.601Z,95.82
2022-11-19T00:51:14.332Z,99.68
2022-11-19T00:53:42.038Z,100.57
2022-11-19T00:56:12.242Z,106.43
2022-11-19T00:58:40.004Z,109.95
2022-11-19T01:01:07.961Z,110.32
2022-11-19T01:03:35.739Z,120.10
2022-11-19T01:06:03.389Z,121.53
2022-11-19T01:08:31.045Z,126.13
2022-11-19T01:11:05.178Z,128.32
2022-11-19T01:13:36.854Z,136.32
2022-11-19T01:16:06.406Z,141.57
2022-11-19T01:18:34.227Z,146.82
2022-11-19T01:21:01.990Z,147.50
2022-11-19T01:23:29.772Z,153.23
2022-11-19T01:25:57.492Z,157.00
2022-11-19T01:28:25.330Z,163.55
2022-11-19T01:30:54.325Z,168.57
2022-11-19T01:33:22.711Z,175.50
2022-11-19T01:35:57.856Z,177.25
2022-11-19T01:38:25.517Z,188.48
2022-11-19T01:40:53.406Z,184.63
2022-11-19T01:43:21.076Z,197.15
2022-11-19T01:45:49.823Z,201.38
2022-11-19T01:48:20.512Z,213.23
2022-11-19T01:50:49.527Z,211.68
2022-11-19T01:53:19.116Z,213.90
2022-11-19T01:55:46.789Z,222.60
2022-11-19T01:58:15.867Z,224.98
2022-11-19T02:00:43.634Z,226.50
2022-11-19T02:03:11.611Z,232.63
2022-11-19T02:05:40.649Z,242.02
2022-11-19T02:08:09.465Z,237.90
2022-11-19T02:10:41.846Z,249.27
2022-11-19T02:13:12.434Z,248.43
2022-11-19T02:15:42.276Z,247.60
2022-11-19T02:18:21.725Z,249.13
2022-11-19T02:21:03.282Z,251.75
2022-11-19T02:23:56.024Z,256.65
2022-11-19T02:26:41.775Z,261.70
2022-11-19T02:29:13.888Z,264.75
2022-11-19T02:31:44.475Z,269.63
2022-11-19T02:34:13.718Z,268.48
2022-11-19T02:36:43.086Z,265.20
2022-11-19T02:39:14.349Z,273.08
2022-11-19T02:41:44.962Z,272.25
2022-11-19T02:44:34.505Z,274.27
2022-11-19T02:47:06.148Z,270.20
2022-11-19T02:49:34.680Z,270.42
2022-11-19T02:52:02.357Z,272.10
2022-11-19T02:54:30.015Z,271.63
2022-11-19T02:56:58.816Z,274.35
2022-11-19T02:59:46.537Z,274.75
2022-11-19T03:02:33.410Z,273.67
2022-11-19T03:05:01.121Z,272.10
2022-11-19T03:07:28.750Z,273.00
2022-11-19T03:09:57.347Z,276.20
2022-11-19T03:12:41.668Z,275.67
2022-11-19T03:15:39.314Z,274.23
2022-11-19T03:18:11.014Z,278.15
2022-11-19T03:20:40.379Z,277.20
2022-11-19T03:23:10.914Z,277.60
2022-11-19T03:25:40.032Z,276.08
2022-11-19T03:28:10.522Z,276.92
2022-11-19T03:30:38.184Z,276.73
2022-11-19T03:33:07.887Z,276.73
2022-11-19T03:35:37.370Z,270.38
2022-11-19T03:38:06.402Z,270.13
2022-11-19T03:40:34.406Z,270.08
2022-11-19T03:43:02.902Z,272.13
2022-11-19T03:45:33.534Z,271.23
2022-11-19T03:48:01.267Z,271.70
2022-11-19T03:50:32.087Z,266.73
2022-11-19T03:53:04.067Z,265.63
2022-11-19T03:55:34.902Z,256.20
2022-11-19T03:58:04.153Z,263.58
2022-11-19T04:00:31.933Z,261.42
2022-11-19T04:02:59.626Z,255.75
2022-11-19T04:05:27.305Z,256.63
2022-11-19T04:07:56.303Z,253.65
2022-11-19T04:10:24.304Z,255.57
2022-11-19T04:12:51.970Z,251.10
2022-11-19T04:15:19.817Z,249.70
2022-11-19T04:17:47.523Z,250.90
2022-11-19T04:20:15.531Z,245.70
2022-11-19T04:22:43.237Z,241.40
2022-11-19T04:25:12.379Z,246.38
2022-11-19T04:27:40.063Z,241.35
2022-11-19T04:30:09.208Z,239.57
2022-11-19T04:32:36.839Z,237.07
2022-11-19T04:35:04.876Z,241.43
2022-11-19T04:37:32.543Z,235.35
2022-11-19T04:40:00.185Z,234.10
2022-11-19T04:42:29.229Z,227.82
2022-11-19T04:44:56.903Z,222.98
2022-11-19T04:47:24.575Z,225.55
2022-11-19T04:49:52.236Z,221.57
2022-11-19T04:52:19.915Z,219.82
2022-11-19T04:54:47.569Z,216.93
2022-11-19T04:57:15.233Z,218.48
2022-11-19T04:59:44.229Z,212.70
2022-11-19T05:02:11.991Z,206.43
2022-11-19T05:04:39.678Z,206.50
2022-11-19T05:07:07.432Z,204.50
2022-11-19T05:09:35.141Z,201.00
2022-11-19T05:12:02.803Z,198.73
2022-11-19T05:14:30.794Z,195.80
2022-11-19T05:16:59.921Z,195.02
2022-11-19T05:19:27.569Z,189.95
2022-11-19T05:21:55.259Z,190.25
2022-11-19T05:24:22.904Z,186.95
2022-11-19T05:26:50.599Z,184.30
2022-11-19T05:29:18.531Z,177.25
2022-11-19T05:31:46.419Z,177.82
2022-11-19T05:34:15.415Z,181.60
2022-11-19T05:36:43.087Z,175.65
2022-11-19T05:39:10.781Z,171.07
2022-11-19T05:41:38.464Z,167.63
2022-11-19T05:44:06.621Z,169.60
2022-11-19T05:46:34.277Z,164.60
2022-11-19T05:49:01.949Z,162.25
2022-11-19T05:51:30.951Z,160.25
2022-11-19T05:53:58.609Z,157.23
2022-11-19T05:56:26.355Z,156.35
2022-11-19T05:58:54.008Z,153.80
2022-11-19T06:01:25.666Z,153.45
2022-11-19T06:03:53.344Z,147.15
2022-11-19T06:06:21.095Z,148.45
2022-11-19T06:08:50.193Z,145.13
2022-11-19T06:11:32.002Z,145.15
2022-11-19T06:13:59.789Z,140.27
2022-11-19T06:16:27.750Z,139.65
2022-11-19T06:18:55.463Z,136.43
2022-11-19T06:21:23.159Z,136.77
2022-11-19T06:23:52.153Z,134.65
2022-11-19T06:26:23.238Z,130.38
2022-11-19T06:28:50.908Z,130.25
2022-11-19T06:31:18.668Z,127.22
2022-11-19T06:33:46.373Z,127.85
2022-11-19T06:36:14.041Z,121.85
2022-11-19T06:38:41.729Z,121.63
2022-11-19T06:41:10.709Z,121.35
2022-11-19T06:43:38.391Z,117.75
2022-11-19T06:46:06.416Z,119.63
2022-11-19T06:48:34.079Z,113.88
2022-11-19T06:51:02.571Z,111.15
2022-11-19T06:53:30.320Z,110.85
2022-11-19T06:55:58.032Z,108.63
2022-11-19T06:58:27.082Z,107.07
2022-11-19T07:00:54.773Z,103.60
2022-11-19T07:03:22.507Z,102.70
2022-11-19T07:05:50.170Z,98.03
2022-11-19T07:08:17.898Z,97.57
2022-11-19T07:10:45.644Z,97.72
2022-11-19T07:13:13.307Z,95.57
2022-11-19T07:15:43.041Z,94.90
2022-11-19T07:18:10.795Z,90.95
2022-11-19T07:20:38.571Z,89.88
2022-11-19T07:23:10.310Z,87.80
2022-11-19T07:25:38.221Z,84.60
2022-11-19T07:28:06.151Z,86.07
2022-11-19T07:30:33.909Z,84.95
2022-11-19T07:33:02.915Z,82.75
2022-11-19T07:35:31.551Z,80.28
2022-11-19T07:37:59.214Z,79.60
2022-11-19T07:40:26.898Z,78.95
2022-11-19T07:42:53.619Z,78.05
2022-11-19T07:45:22.236Z,73.68
2022-11-19T07:47:50.030Z,73.00
2022-11-19T07:50:19.219Z,70.22
2022-11-19T07:52:46.923Z,69.30
2022-11-19T07:55:15.388Z,67.88
2022-11-19T07:57:43.119Z,66.35
2022-11-19T08:00:12.020Z,66.38
2022-11-19T08:02:42.937Z,63.55
2022-11-19T08:05:10.818Z,60.83
2022-11-19T08:07:39.923Z,60.50
2022-11-19T08:10:08.935Z,59.85
2022-11-19T08:12:36.880Z,57.65
2022-11-19T08:15:05.024Z,58.95
2022-11-19T08:17:50.372Z,56.83
2022-11-19T08:20:18.300Z,55.15
2022-11-19T08:22:47.278Z,54.88
2022-11-19T08:25:15.077Z,54.03
2022-11-19T08:27:42.744Z,51.22
2022-11-19T08:30:11.363Z,51.47
2022-11-19T08:32:39.031Z,50.72
2022-11-19T08:35:07.813Z,49.65
2022-11-19T08:37:35.460Z,48.40
2022-11-19T08:40:04.809Z,47.47
2022-11-19T08:42:49.959Z,46.28
2022-11-19T08:45:20.777Z,45.50
2022-11-19T08:47:48.820Z,45.10
2022-11-19T08:50:16.995Z,43.03
2022-11-19T08:52:44.659Z,43.15
2022-11-19T08:55:13.893Z,41.53
2022-11-19T08:57:41.572Z,40.78
2022-11-19T09:00:10.623Z,39.65
2022-11-19T09:02:38.268Z,37.63
2022-11-19T09:05:09.580Z,36.58
2022-11-19T09:07:39.696Z,34.70
2022-11-19T09:10:08.471Z,32.78
2022-11-19T09:12:37.519Z,32.88
2022-11-19T09:15:05.999Z,32.90
2022-11-19T09:17:33.666Z,32.13
2022-11-19T09:20:01.397Z,30.30
2022-11-19T09:22:29.870Z,29.58
2022-11-19T09:24:57.551Z,29.25
2022-11-19T09:27:25.239Z,27.75
2022-11-19T09:29:54.232Z,189.95
2022-11-19T09:32:25.335Z,82.43
2022-11-19T09:34:53.371Z,112.13
2022-11-19T09:37:21.018Z,62.42
2022-11-19T09:39:48.684Z,52.20
2022-11-19T09:42:17.378Z,45.53
2022-11-19T09:45:00.104Z,35.92
2022-11-19T09:47:33.995Z,34.30
2022-11-19T09:50:06.490Z,35.55
2022-11-19T09:52:34.697Z,23.92
2022-11-19T09:55:02.399Z,39.15
2022-11-19T09:57:32.952Z,32.47
2022-11-19T10:00:02.731Z,16.48
2022-11-19T10:02:39.392Z,13.10
2022-11-19T10:05:08.157Z,11.55
2022-11-19T10:07:39.128Z,14.30
2022-11-19T10:10:16.415Z,13.05
2022-11-19T10:12:54.181Z,15.55
2022-11-19T10:15:25.430Z,11.75
2022-11-19T10:18:01.082Z,12.25
2022-11-19T10:20:51.112Z,19.75
2022-11-19T10:23:19.386Z,19.48
2022-11-19T10:25:47.978Z,16.52
2022-11-19T10:28:16.516Z,12.40
2022-11-19T10:30:49.035Z,21.33
2022-11-19T10:33:19.274Z,18.33
2022-11-19T10:35:48.850Z,20.33
2022-11-19T10:38:19.350Z,12.60
2022-11-19T10:40:49.079Z,9.38
2022-11-19T10:43:23.129Z,13.95
2022-11-19T10:45:52.749Z,10.48
2022-11-19T10:48:21.871Z,14.02
2022-11-19T10:50:49.638Z,15.90
2022-11-19T10:53:19.452Z,13.75
2022-11-19T10:55:54.028Z,18.35
2022-11-19T10:58:23.707Z,20.55
2022-11-19T11:00:53.899Z,9.18
2022-11-19T11:03:24.122Z,14.70
2022-11-19T11:05:57.215Z,8.68
2022-11-19T11:08:25.037Z,11.27
2022-11-19T11:10:52.686Z,11.82
2022-11-19T11:13:44.703Z,8.88
2022-11-19T11:16:15.356Z,8.02
2022-11-19T11:18:43.143Z,15.13
2022-11-19T11:21:14.705Z,16.70
2022-11-19T11:23:51.049Z,17.23
2022-11-19T11:26:23.862Z,12.00
2022-11-19T11:28:56.221Z,8.23
2022-11-19T11:31:36.468Z,7.88
2022-11-19T11:34:04.703Z,10.00
2022-11-19T11:36:33.608Z,11.88
2022-11-19T11:39:02.055Z,7.20
2022-11-19T11:44:28.789Z,7.70
2022-11-19T11:46:59.260Z,10.85
2022-11-19T11:49:29.245Z,9.98
2022-11-19T11:52:19.111Z,5.13
2022-11-19T11:54:57.905Z,9.88
2022-11-19T11:57:26.428Z,15.55
2022-11-19T11:59:54.196Z,12.02
2022-11-19T12:02:30.356Z,13.40
2022-11-19T12:05:00.544Z,15.00
2022-11-19T12:07:57.667Z,15.32
2022-11-19T12:10:27.544Z,10.75
2022-11-19T12:13:03.101Z,16.52
2022-11-19T12:15:35.602Z,14.73
2022-11-19T12:18:08.830Z,6.63
2022-11-19T12:20:38.665Z,11.27
2022-11-19T12:23:22.992Z,16.00
2022-11-19T12:25:57.448Z,10.88
2022-11-19T12:28:38.391Z,7.85
2022-11-19T12:31:11.777Z,16.10
2022-11-19T12:33:52.420Z,16.45
2022-11-19T12:36:23.382Z,11.82
2022-11-19T12:38:54.955Z,12.73
2022-11-19T12:41:47.329Z,16.20
2022-11-19T12:44:17.941Z,13.05
2022-11-19T12:46:50.958Z,10.63
2022-11-19T12:49:39.546Z,23.08
2022-11-19T12:52:13.864Z,13.55
2022-11-19T12:54:48.563Z,14.35
2022-11-19T12:57:29.211Z,10.82
2022-11-19T13:00:19.690Z,13.50
2022-11-19T13:02:52.979Z,9.45
2022-11-19T13:05:23.579Z,9.48
2022-11-19T13:07:53.850Z,9.30
2022-11-19T13:10:23.588Z,8.55
2022-11-19T13:12:52.855Z,11.38
2022-11-19T13:15:22.144Z,13.18
2022-11-19T13:17:51.201Z,13.43
2022-11-19T13:20:22.718Z,8.75
2022-11-19T13:22:50.713Z,8.93
2022-11-19T13:25:19.826Z,9.27
2022-11-19T13:27:47.928Z,11.02
2022-11-19T13:30:17.850Z,16.67
2022-11-19T13:32:49.453Z,72.18
2022-11-19T13:35:19.864Z,12.88
2022-11-19T13:37:58.739Z,15.32
2022-11-19T13:40:28.214Z,9.40
2022-11-19T13:46:09.618Z,7.13
2022-11-19T13:48:39.543Z,5.47
2022-11-19T13:51:09.733Z,8.48
2022-11-19T13:53:39.926Z,10.35
2022-11-19T13:56:12.181Z,9.52
2022-11-19T13:58:39.888Z,9.18
2022-11-19T14:01:29.213Z,6.20
2022-11-19T14:04:04.480Z,20.50
2022-11-19T14:06:40.218Z,36.63
2022-11-19T14:09:16.822Z,11.05
2022-11-19T14:11:53.438Z,16.70
2022-11-19T14:14:46.107Z,17.38
2022-11-19T14:17:36.308Z,12.60
2022-11-19T14:20:42.836Z,17.25
2022-11-19T14:23:28.226Z,12.57
2022-11-19T14:26:14.984Z,44.72
2022-11-19T14:28:47.163Z,18.20
2022-11-19T14:31:15.059Z,33.13
2022-11-19T14:33:58.697Z,19.20
2022-11-19T14:36:29.338Z,13.50
2022-11-19T14:38:57.757Z,10.18
2022-11-19T14:41:32.730Z,13.63
2022-11-19T14:44:09.395Z,12.18
2022-11-19T14:46:38.464Z,46.33
2022-11-19T14:49:14.744Z,23.73
2022-11-19T14:51:42.473Z,44.60
2022-11-19T14:54:25.948Z,19.52
2022-11-19T14:57:06.279Z,28.02
2022-11-19T14:59:38.144Z,15.85
2022-11-19T15:02:14.643Z,25.58
2022-11-19T15:04:44.497Z,25.83
2022-11-19T15:07:12.837Z,26.05
2022-11-19T15:09:54.351Z,26.27
2022-11-19T15:12:26.716Z,20.35
2022-11-19T15:15:06.496Z,20.95
2022-11-19T15:17:35.191Z,32.63
2022-11-19T15:20:23.343Z,33.95
2022-11-19T15:22:56.185Z,12.02
2022-11-19T15:25:32.843Z,51.95
2022-11-19T15:28:15.492Z,22.83
2022-11-19T15:30:53.513Z,32.20
2022-11-19T15:33:57.781Z,37.72
2022-11-19T15:36:31.133Z,50.63
2022-11-19T15:39:02.455Z,14.82
2022-11-19T15:41:31.311Z,20.65
2022-11-19T15:44:02.754Z,43.85
2022-11-19T15:46:35.626Z,25.75
2022-11-19T15:49:06.169Z,39.13
2022-11-19T15:51:40.906Z,32.25
2022-11-19T15:54:12.326Z,32.88
2022-11-19T15:56:40.770Z,41.75
2022-11-19T15:59:09.746Z,98.43
2022-11-19T16:01:37.530Z,25.90
2022-11-19T16:04:07.029Z,37.78
2022-11-19T16:06:34.800Z,24.60
2022-11-19T16:09:04.679Z,28.58
2022-11-19T16:11:52.306Z,47.28
2022-11-19T16:14:39.603Z,182.38
2022-11-19T16:17:29.638Z,26.25
2022-11-19T16:20:08.580Z,31.98
2022-11-19T16:22:39.788Z,22.13
2022-11-19T16:25:11.748Z,18.33
2022-11-19T16:27:40.446Z,17.27
2022-11-19T16:30:17.279Z,21.58
2022-11-19T16:32:44.977Z,16.33
2022-11-19T16:35:20.226Z,19.95
2022-11-19T16:37:48.167Z,15.82
2022-11-19T16:40:16.362Z,19.35
2022-11-19T16:42:43.309Z,17.00
2022-11-19T16:45:17.719Z,21.55
2022-11-19T16:47:52.060Z,16.95
2022-11-19T16:50:26.998Z,12.10
2022-11-19T16:52:54.799Z,18.75
2022-11-19T16:55:42.878Z,29.38
2022-11-19T16:58:16.376Z,27.85
2022-11-19T17:00:48.648Z,48.38
2022-11-19T17:03:31.973Z,50.70
2022-11-19T17:05:59.624Z,47.90
2022-11-19T17:08:28.862Z,60.70
2022-11-19T17:11:29.791Z,86.53
2022-11-19T17:13:57.460Z,89.22
2022-11-19T17:16:26.415Z,41.53
2022-11-19T17:18:54.070Z,36.38
2022-11-19T17:21:24.301Z,56.88
2022-11-19T17:23:51.999Z,36.30
2022-11-19T17:26:20.671Z,25.67
2022-11-19T17:28:49.513Z,37.97
2022-11-19T17:31:18.037Z,32.80
2022-11-19T17:33:51.986Z,32.53
2022-11-19T17:36:19.719Z,48.45
2022-11-19T17:38:47.571Z,30.92
2022-11-19T17:41:16.555Z,33.08
2022-11-19T17:44:01.824Z,59.45
2022-11-19T17:46:29.929Z,47.00
2022-11-19T17:48:58.934Z,43.85
2022-11-19T17:51:26.781Z,51.85
2022-11-19T17:53:55.492Z,37.05
2022-11-19T17:56:24.643Z,39.45
2022-11-19T17:58:52.350Z,37.70
2022-11-19T18:01:20.403Z,24.55
2022-11-19T18:03:48.247Z,26.15
2022-11-19T18:06:17.702Z,39.53
2022-11-19T18:08:45.439Z,28.67
2022-11-19T18:11:13.745Z,29.95
2022-11-19T18:13:42.022Z,29.10
2022-11-19T18:16:13.109Z,33.00
2022-11-19T18:18:40.765Z,43.58
2022-11-19T18:21:10.718Z,44.38
2022-11-19T18:23:40.735Z,37.50
2022-11-19T18:26:10.483Z,33.42
2022-11-19T18:28:38.289Z,27.58
2022-11-19T18:31:06.261Z,31.77
2022-11-19T18:33:35.373Z,25.75
2022-11-19T18:36:03.216Z,33.67
2022-11-19T18:38:31.033Z,23.38
2022-11-19T18:41:00.089Z,24.77
2022-11-19T18:43:45.298Z,24.45
2022-11-19T18:46:12.999Z,22.48
2022-11-19T18:48:40.683Z,19.00
2022-11-19T18:51:09.713Z,23.58
2022-11-19T18:53:37.429Z,20.70
2022-11-19T18:56:06.827Z,16.70
2022-11-19T18:58:34.999Z,20.00
2022-11-19T19:01:05.070Z,17.67
2022-11-19T19:03:32.736Z,22.15
2022-11-19T19:06:02.511Z,22.58
2022-11-19T19:08:30.234Z,18.08
2022-11-19T19:11:17.972Z,20.70
2022-11-19T19:13:47.171Z,17.35
2022-11-19T19:16:14.851Z,21.85
2022-11-19T19:18:44.117Z,18.23
2022-11-19T19:21:13.497Z,16.40
2022-11-19T19:23:41.447Z,18.17
2022-11-19T19:26:09.570Z,17.45
2022-11-19T19:28:37.386Z,13.95
2022-11-19T19:31:07.200Z,13.63
2022-11-19T19:33:36.416Z,15.35
2022-11-19T19:36:04.464Z,14.18
2022-11-19T19:38:32.195Z,13.02
2022-11-19T19:41:04.599Z,12.60
2022-11-19T19:43:32.283Z,18.52
2022-11-19T19:46:04.348Z,15.60
2022-11-19T19:48:33.369Z,14.30
2022-11-19T19:51:01.175Z,14.48
2022-11-19T19:53:28.883Z,12.68
2022-11-19T19:56:02.810Z,13.63
2022-11-19T19:58:30.555Z,16.02
2022-11-19T20:01:04.587Z,13.07
2022-11-19T20:03:34.817Z,11.73
2022-11-19T20:06:02.599Z,10.38
2022-11-19T20:08:30.382Z,11.88
2022-11-19T20:11:02.063Z,13.80
2022-11-19T20:13:31.892Z,9.93
2022-11-19T20:16:00.486Z,10.68
2022-11-19T20:18:28.726Z,13.73
2022-11-19T20:21:01.018Z,7.90
2022-11-19T20:23:28.937Z,8.02
2022-11-19T20:25:58.187Z,8.88
2022-11-19T20:28:25.898Z,8.88
2022-11-19T20:30:53.964Z,9.50
2022-11-19T20:33:21.695Z,13.15
2022-11-19T20:35:52.779Z,9.10
2022-11-19T20:38:21.805Z,10.00
2022-11-19T20:40:56.878Z,6.35
2022-11-19T20:43:46.870Z,10.32
2022-11-19T20:46:18.554Z,7.25
2022-11-19T20:48:46.636Z,10.43
2022-11-19T20:51:16.084Z,8.82
2022-11-19T20:53:45.234Z,9.88
2022-11-19T20:56:13.016Z,8.40
2022-11-19T20:58:40.783Z,8.77
2022-11-19T21:01:10.192Z,9.52
2022-11-19T21:03:38.204Z,6.45
2022-11-19T21:06:06.486Z,11.32
2022-11-19T21:08:34.503Z,9.43
2022-11-19T21:11:04.909Z,7.85
2022-11-19T21:13:32.829Z,10.00
2022-11-19T21:16:00.505Z,6.53
2022-11-19T21:18:31.213Z,7.60
2022-11-19T21:21:03.078Z,9.02
2022-11-19T21:23:31.026Z,6.95
2022-11-19T21:26:02.805Z,6.95
2022-11-19T21:28:30.529Z,9.18
2022-11-19T21:30:58.205Z,7.53
2022-11-19T21:33:26.923Z,6.00
2022-11-19T21:35:54.948Z,6.07
2022-11-19T21:38:22.741Z,7.13
2022-11-19T21:40:51.105Z,6.93
2022-11-19T21:43:20.463Z,8.52
2022-11-19T21:45:48.861Z,5.82
2022-11-19T21:48:16.624Z,7.88
2022-11-19T21:50:44.494Z,9.43
2022-11-19T21:53:12.386Z,8.48
2022-11-19T21:55:40.072Z,4.72
2022-11-19T21:58:07.914Z,5.28
2022-11-19T22:00:37.026Z,7.78
2022-11-19T22:03:05.003Z,5.65
2022-11-19T22:05:32.703Z,6.32
2022-11-19T22:08:00.396Z,6.25
2022-11-19T22:10:28.288Z,8.30
2022-11-19T22:12:57.141Z,7.97
2022-11-19T22:15:25.009Z,7.13
2022-11-19T22:17:54.038Z,6.88
2022-11-19T22:20:23.682Z,6.47
2022-11-19T22:22:51.578Z,5.60
2022-11-19T22:25:19.475Z,11.27
2022-11-19T22:27:47.116Z,4.05
2022-11-19T22:30:15.543Z,4.03
2022-11-19T22:32:43.248Z,4.72
2022-11-19T22:35:12.315Z,4.13
2022-11-19T22:37:40.002Z,5.82
2022-11-19T22:40:09.188Z,5.65
2022-11-19T22:42:36.880Z,5.05
2022-11-19T22:45:05.697Z,6.18
2022-11-19T22:47:33.358Z,4.32
2022-11-19T22:50:01.063Z,4.00
2022-11-19T22:52:30.899Z,6.22
2022-11-19T22:54:58.611Z,6.35
2022-11-19T22:57:27.646Z,3.20
2022-11-19T22:59:55.357Z,4.88
2022-11-19T23:02:23.070Z,4.43
2022-11-19T23:04:50.786Z,5.68
2022-11-19T23:07:18.525Z,3.42
2022-11-19T23:09:47.572Z,3.55
2022-11-19T23:12:29.231Z,3.75
2022-11-19T23:14:56.922Z,4.28
2022-11-19T23:17:24.630Z,4.82
2022-11-19T23:19:52.305Z,4.72
2022-11-19T23:22:19.987Z,5.22
2022-11-19T23:24:48.982Z,4.38
2022-11-19T23:27:21.847Z,3.63
2022-11-19T23:29:49.879Z,4.30
2022-11-19T23:32:17.566Z,5.35
2022-11-19T23:34:45.203Z,4.80
2022-11-19T23:37:13.106Z,4.57
2022-11-19T23:39:40.811Z,3.83
2022-11-19T23:42:09.926Z,5.78
2022-11-19T23:44:37.598Z,5.78
2022-11-19T23:47:06.624Z,4.13
2022-11-19T23:49:34.411Z,5.35
2022-11-19T23:52:02.102Z,5.65
2022-11-19T23:54:29.777Z,4.93
2022-11-19T23:56:57.478Z,5.43
2022-11-19T23:59:27.187Z,5.75
